createdAt,value
2019-06-19T00:01:03.159Z,18.70
2019-06-19T00:03:33.139Z,18.70
2019-06-19T00:06:03.483Z,18.80
2019-06-19T00:08:33.553Z,18.90
2019-06-19T00:11:03.435Z,19.00
2019-06-19T00:13:33.017Z,19.10
2019-06-19T00:16:03.564Z,19.20
2019-06-19T00:18:33.216Z,19.30
2019-06-19T00:21:03.155Z,19.30
2019-06-19T00:23:32.364Z,19.40
2019-06-19T00:26:03.290Z,19.40
2019-06-19T00:28:33.226Z,19.40
2019-06-19T00:31:02.073Z,19.50
2019-06-19T00:33:30.766Z,19.50
2019-06-19T00:36:01.233Z,19.50
2019-06-19T00:38:31.420Z,19.50
2019-06-19T00:41:00.675Z,19.70
2019-06-19T00:43:31.673Z,19.70
2019-06-19T00:46:00.592Z,19.60
2019-06-19T00:48:31.219Z,19.60
2019-06-19T00:51:01.219Z,19.60
2019-06-19T00:53:31.153Z,19.50
2019-06-19T00:56:12.735Z,19.50
2019-06-19T00:58:41.863Z,19.40
2019-06-19T01:01:11.814Z,19.30
2019-06-19T01:03:41.461Z,19.20
2019-06-19T01:06:11.473Z,19.10
2019-06-19T01:08:41.966Z,18.90
2019-06-19T01:11:11.303Z,18.80
2019-06-19T01:13:41.500Z,18.80
2019-06-19T01:16:11.739Z,18.70
2019-06-19T01:18:41.149Z,18.60
2019-06-19T01:21:11.955Z,18.70
2019-06-19T01:23:40.943Z,18.60
2019-06-19T01:26:11.863Z,18.60
2019-06-19T01:28:41.264Z,18.50
2019-06-19T01:31:11.780Z,18.50
2019-06-19T01:33:41.431Z,18.60
2019-06-19T01:36:11.190Z,18.70
2019-06-19T01:38:41.313Z,18.60
2019-06-19T01:41:10.863Z,18.50
2019-06-19T01:43:40.937Z,18.50
2019-06-19T01:46:10.903Z,18.50
2019-06-19T01:48:41.598Z,18.50
2019-06-19T01:51:11.761Z,18.40
2019-06-19T01:53:57.623Z,18.40
2019-06-19T01:56:25.913Z,18.50
2019-06-19T01:58:54.199Z,18.50
2019-06-19T02:01:22.484Z,18.30
2019-06-19T02:03:51.566Z,18.30
2019-06-19T02:06:21.315Z,18.10
2019-06-19T02:08:51.181Z,18.10
2019-06-19T02:11:21.185Z,18.10
2019-06-19T02:13:51.347Z,18.10
2019-06-19T02:16:20.786Z,18.00
2019-06-19T02:18:51.558Z,17.90
2019-06-19T02:21:21.099Z,17.90
2019-06-19T02:23:50.573Z,17.80
2019-06-19T02:26:21.233Z,17.70
2019-06-19T02:28:50.561Z,17.70
2019-06-19T02:31:22.321Z,17.60
2019-06-19T02:33:51.752Z,17.60
2019-06-19T02:36:21.705Z,17.60
2019-06-19T02:38:51.924Z,17.60
2019-06-19T02:41:21.152Z,17.70
2019-06-19T02:43:49.064Z,17.70
2019-06-19T02:46:17.732Z,17.60
2019-06-19T02:48:46.063Z,17.50
2019-06-19T02:51:14.322Z,17.50
2019-06-19T02:53:42.583Z,17.40
2019-06-19T02:56:10.979Z,17.40
2019-06-19T02:58:39.242Z,17.30
2019-06-19T03:01:11.112Z,17.30
2019-06-19T03:03:37.517Z,17.30
2019-06-19T03:06:05.805Z,17.30
2019-06-19T03:08:34.098Z,17.30
2019-06-19T03:11:02.356Z,17.30
2019-06-19T03:13:30.659Z,17.30
2019-06-19T03:15:58.949Z,17.20
2019-06-19T03:18:27.244Z,17.10
2019-06-19T03:20:55.519Z,17.10
2019-06-19T03:23:23.828Z,17.10
2019-06-19T03:25:52.104Z,17.10
2019-06-19T03:28:20.412Z,17.00
2019-06-19T03:30:48.733Z,17.00
2019-06-19T03:33:17.099Z,17.10
2019-06-19T03:35:45.373Z,17.00
2019-06-19T03:38:13.737Z,17.10
2019-06-19T03:40:42.508Z,17.00
2019-06-19T03:43:10.782Z,17.00
2019-06-19T03:45:39.138Z,17.00
2019-06-19T03:48:07.512Z,17.00
2019-06-19T03:50:35.839Z,17.00
2019-06-19T03:53:04.088Z,16.90
2019-06-19T03:55:35.670Z,16.90
2019-06-19T03:58:03.936Z,17.00
2019-06-19T04:00:32.171Z,17.00
2019-06-19T04:03:00.464Z,17.00
2019-06-19T04:05:28.676Z,16.90
2019-06-19T04:07:56.948Z,16.90
2019-06-19T04:10:25.240Z,17.00
2019-06-19T04:12:53.518Z,17.00
2019-06-19T04:15:21.812Z,17.00
2019-06-19T04:17:50.071Z,17.00
2019-06-19T04:20:18.390Z,17.10
2019-06-19T04:22:46.693Z,17.20
2019-06-19T04:25:15.470Z,17.40
2019-06-19T04:27:43.768Z,18.00
2019-06-19T04:30:14.733Z,18.60
2019-06-19T04:32:43.006Z,20.00
2019-06-19T04:35:11.278Z,21.10
2019-06-19T04:37:39.658Z,21.80
2019-06-19T04:40:08.128Z,22.20
2019-06-19T04:42:36.375Z,23.30
2019-06-19T04:45:04.921Z,24.90
2019-06-19T04:47:33.287Z,25.90
2019-06-19T04:50:01.604Z,26.20
2019-06-19T04:52:42.345Z,26.60
2019-06-19T04:55:00.162Z,27.70
2019-06-19T04:57:28.431Z,28.20
2019-06-19T04:59:56.723Z,28.10
2019-06-19T05:02:25.038Z,28.20
2019-06-19T05:04:53.409Z,28.70
2019-06-19T05:07:21.683Z,29.30
2019-06-19T05:09:50.177Z,30.60
2019-06-19T05:12:18.429Z,31.20
2019-06-19T05:14:46.715Z,30.50
2019-06-19T05:17:14.951Z,30.40
2019-06-19T05:19:43.624Z,28.80
2019-06-19T05:22:11.871Z,27.80
2019-06-19T05:24:40.488Z,27.50
2019-06-19T05:27:08.817Z,27.90
2019-06-19T05:29:37.139Z,29.20
2019-06-19T05:32:05.429Z,30.10
2019-06-19T05:34:34.005Z,29.60
2019-06-19T05:37:03.131Z,28.80
2019-06-19T05:39:31.413Z,28.00
2019-06-19T05:41:59.758Z,26.70
2019-06-19T05:44:28.064Z,26.20
2019-06-19T05:46:56.332Z,25.60
2019-06-19T05:49:25.852Z,25.00
2019-06-19T05:51:54.081Z,24.50
2019-06-19T05:54:22.379Z,24.00
2019-06-19T05:56:53.383Z,23.70
2019-06-19T05:59:21.722Z,23.50
2019-06-19T06:01:50.018Z,23.30
2019-06-19T06:04:18.422Z,22.90
2019-06-19T06:06:46.784Z,22.90
2019-06-19T06:09:15.154Z,22.80
2019-06-19T06:11:43.454Z,22.60
2019-06-19T06:14:11.778Z,22.60
2019-06-19T06:16:40.049Z,22.50
2019-06-19T06:19:08.436Z,22.60
2019-06-19T06:22:02.011Z,22.50
2019-06-19T06:24:30.404Z,22.60
2019-06-19T06:27:00.876Z,22.70
2019-06-19T06:29:29.516Z,22.70
2019-06-19T06:31:57.926Z,22.60
2019-06-19T06:34:26.328Z,22.70
2019-06-19T06:36:54.676Z,22.70
2019-06-19T06:39:23.375Z,22.80
2019-06-19T06:41:51.677Z,22.80
2019-06-19T06:44:21.014Z,23.00
2019-06-19T06:46:49.321Z,23.10
2019-06-19T06:49:17.637Z,23.20
2019-06-19T06:51:46.004Z,23.40
2019-06-19T06:54:14.660Z,23.60
2019-06-19T06:56:42.948Z,23.60
2019-06-19T06:59:11.262Z,23.80
2019-06-19T07:01:39.560Z,23.90
2019-06-19T07:04:07.908Z,24.00
2019-06-19T07:06:36.189Z,24.10
2019-06-19T07:09:06.112Z,24.30
2019-06-19T07:11:34.430Z,24.40
2019-06-19T07:14:02.791Z,24.40
2019-06-19T07:16:31.131Z,24.50
2019-06-19T07:18:59.463Z,24.50
2019-06-19T07:21:30.309Z,24.60
2019-06-19T07:23:57.851Z,24.80
2019-06-19T07:26:26.177Z,24.90
2019-06-19T07:28:56.759Z,25.00
2019-06-19T07:31:25.540Z,25.00
2019-06-19T07:33:53.963Z,25.20
2019-06-19T07:36:22.312Z,25.20
2019-06-19T07:38:50.717Z,25.20
2019-06-19T07:41:19.005Z,25.30
2019-06-19T07:43:47.327Z,25.40
2019-06-19T07:46:15.652Z,25.40
2019-06-19T07:48:43.997Z,25.50
2019-06-19T07:51:12.318Z,25.60
2019-06-19T07:53:40.646Z,25.70
2019-06-19T07:56:09.163Z,25.90
2019-06-19T07:58:37.605Z,25.90
2019-06-19T08:01:05.912Z,26.00
2019-06-19T08:03:34.207Z,26.20
2019-06-19T08:06:04.174Z,26.30
2019-06-19T08:08:33.013Z,26.40
2019-06-19T08:11:01.786Z,26.60
2019-06-19T08:13:30.240Z,26.80
2019-06-19T08:15:58.642Z,26.90
2019-06-19T08:18:26.910Z,27.00
2019-06-19T08:20:56.031Z,27.20
2019-06-19T08:23:24.363Z,27.30
2019-06-19T08:25:52.695Z,27.40
2019-06-19T08:28:21.038Z,27.50
2019-06-19T08:30:49.333Z,27.60
2019-06-19T08:33:17.735Z,27.70
2019-06-19T08:35:45.988Z,27.80
2019-06-19T08:38:14.314Z,27.80
2019-06-19T08:40:42.726Z,28.00
2019-06-19T08:43:11.124Z,28.00
2019-06-19T08:45:39.446Z,28.20
2019-06-19T08:48:07.832Z,28.20
2019-06-19T08:50:36.155Z,28.30
2019-06-19T08:53:04.473Z,28.40
2019-06-19T08:55:32.725Z,28.50
2019-06-19T08:58:01.111Z,28.50
2019-06-19T09:00:29.776Z,28.60
2019-06-19T09:02:58.161Z,28.60
2019-06-19T09:05:26.553Z,28.60
2019-06-19T09:07:54.869Z,28.80
2019-06-19T09:10:38.676Z,28.80
2019-06-19T09:13:27.634Z,28.90
2019-06-19T09:15:56.008Z,29.00
2019-06-19T09:18:24.386Z,29.00
2019-06-19T09:20:52.750Z,29.10
2019-06-19T09:23:21.126Z,29.20
2019-06-19T09:25:49.745Z,29.20
2019-06-19T09:28:18.070Z,29.30
2019-06-19T09:30:46.410Z,29.40
2019-06-19T09:33:14.816Z,29.40
2019-06-19T09:35:43.078Z,29.50
2019-06-19T09:38:11.473Z,29.60
2019-06-19T09:40:39.709Z,29.50
2019-06-19T09:43:08.006Z,29.60
2019-06-19T09:45:36.450Z,29.40
2019-06-19T09:48:07.742Z,29.30
2019-06-19T09:50:35.775Z,29.40
2019-06-19T09:53:06.529Z,29.60
2019-06-19T09:55:34.818Z,29.70
2019-06-19T09:58:03.175Z,29.90
2019-06-19T10:00:31.437Z,30.00
2019-06-19T10:03:00.127Z,30.10
2019-06-19T10:05:28.379Z,30.20
2019-06-19T10:07:56.697Z,30.30
2019-06-19T10:10:26.547Z,30.30
2019-06-19T10:12:54.829Z,30.30
2019-06-19T10:15:23.211Z,30.30
2019-06-19T10:17:51.578Z,30.50
2019-06-19T10:20:19.893Z,30.60
2019-06-19T10:22:48.214Z,30.70
2019-06-19T10:25:16.742Z,30.80
2019-06-19T10:27:45.073Z,31.00
2019-06-19T10:30:14.840Z,31.00
2019-06-19T10:32:43.125Z,30.80
2019-06-19T10:35:23.469Z,30.80
2019-06-19T10:37:43.323Z,31.00
2019-06-19T10:40:11.683Z,31.20
2019-06-19T10:42:43.236Z,31.30
2019-06-19T10:45:09.979Z,31.60
2019-06-19T10:47:38.412Z,31.20
2019-06-19T10:50:08.367Z,31.00
2019-06-19T10:52:36.971Z,30.80
2019-06-19T10:55:05.725Z,30.50
2019-06-19T10:57:34.045Z,30.50
2019-06-19T11:00:02.752Z,30.70
2019-06-19T11:02:31.913Z,30.80
2019-06-19T11:05:00.204Z,31.00
2019-06-19T11:07:28.570Z,30.70
2019-06-19T11:09:57.670Z,30.60
2019-06-19T11:12:25.958Z,30.50
2019-06-19T11:14:54.350Z,30.70
2019-06-19T11:17:22.635Z,30.90
2019-06-19T11:19:51.010Z,31.10
2019-06-19T11:22:19.615Z,31.20
2019-06-19T11:24:47.951Z,31.00
2019-06-19T11:27:16.267Z,30.50
2019-06-19T11:29:44.546Z,30.70
2019-06-19T11:32:12.851Z,30.70
2019-06-19T11:34:41.197Z,30.80
2019-06-19T11:37:09.500Z,31.00
2019-06-19T11:39:37.823Z,30.70
2019-06-19T11:42:06.078Z,30.80
2019-06-19T11:44:34.358Z,30.80
2019-06-19T11:47:02.648Z,30.20
2019-06-19T11:49:30.892Z,30.00
2019-06-19T11:51:59.230Z,29.80
2019-06-19T11:54:27.511Z,29.50
2019-06-19T11:56:55.831Z,29.40
2019-06-19T11:59:24.236Z,29.20
2019-06-19T12:01:55.726Z,29.30
2019-06-19T12:04:22.695Z,29.20
2019-06-19T12:06:51.085Z,29.20
2019-06-19T12:09:19.381Z,29.00
2019-06-19T12:11:47.828Z,28.90
2019-06-19T12:14:18.922Z,29.10
2019-06-19T12:16:46.245Z,29.20
2019-06-19T12:19:14.553Z,29.20
2019-06-19T12:21:45.141Z,29.30
2019-06-19T12:24:13.627Z,29.30
2019-06-19T12:26:41.961Z,29.20
2019-06-19T12:29:10.271Z,29.20
2019-06-19T12:31:38.625Z,29.20
2019-06-19T12:34:06.947Z,29.20
2019-06-19T12:36:35.325Z,29.20
2019-06-19T12:39:05.018Z,29.30
2019-06-19T12:41:33.462Z,29.30
2019-06-19T12:44:01.854Z,29.60
2019-06-19T12:46:30.251Z,29.60
2019-06-19T12:48:58.631Z,29.70
2019-06-19T12:51:27.271Z,29.80
2019-06-19T12:53:55.589Z,29.70
2019-06-19T12:56:24.041Z,29.80
2019-06-19T12:58:52.484Z,29.80
2019-06-19T13:01:20.848Z,29.80
2019-06-19T13:03:49.212Z,30.00
2019-06-19T13:06:17.617Z,29.90
2019-06-19T13:08:45.919Z,30.00
2019-06-19T13:11:14.260Z,29.60
2019-06-19T13:13:42.625Z,29.50
2019-06-19T13:16:10.982Z,29.60
2019-06-19T13:18:39.640Z,29.70
2019-06-19T13:21:08.045Z,29.90
2019-06-19T13:23:36.636Z,29.90
2019-06-19T13:26:05.013Z,29.80
2019-06-19T13:28:33.501Z,29.90
2019-06-19T13:31:01.765Z,30.00
2019-06-19T13:33:30.083Z,29.40
2019-06-19T13:35:58.492Z,29.30
2019-06-19T13:38:26.795Z,29.50
2019-06-19T13:40:55.171Z,29.70
2019-06-19T13:43:23.829Z,29.90
2019-06-19T13:45:53.968Z,29.70
2019-06-19T13:48:22.314Z,29.60
2019-06-19T13:50:50.610Z,29.70
2019-06-19T13:53:18.970Z,30.00
2019-06-19T13:55:47.700Z,30.30
2019-06-19T13:58:16.041Z,30.30
2019-06-19T14:00:44.460Z,30.50
2019-06-19T14:03:12.943Z,30.70
2019-06-19T14:05:42.988Z,30.70
2019-06-19T14:08:11.594Z,30.40
2019-06-19T14:10:39.970Z,30.00
2019-06-19T14:13:08.265Z,29.90
2019-06-19T14:15:36.702Z,30.00
2019-06-19T14:18:05.045Z,30.30
2019-06-19T14:20:33.378Z,30.30
2019-06-19T14:23:01.707Z,30.20
2019-06-19T14:25:30.041Z,30.30
2019-06-19T14:27:58.442Z,30.20
2019-06-19T14:30:28.083Z,30.00
2019-06-19T14:32:56.429Z,29.90
2019-06-19T14:35:24.734Z,29.80
2019-06-19T14:37:53.101Z,29.50
2019-06-19T14:40:21.763Z,29.60
2019-06-19T14:42:50.107Z,29.50
2019-06-19T14:45:18.366Z,29.70
2019-06-19T14:47:46.733Z,29.80
2019-06-19T14:50:15.110Z,30.00
2019-06-19T14:52:43.454Z,29.50
2019-06-19T14:55:13.779Z,29.60
2019-06-19T14:57:42.107Z,29.70
2019-06-19T15:00:10.846Z,29.60
2019-06-19T15:02:39.219Z,29.70
2019-06-19T15:05:07.524Z,29.90
2019-06-19T15:07:50.057Z,29.60
2019-06-19T15:10:05.849Z,29.50
2019-06-19T15:12:34.576Z,29.40
2019-06-19T15:15:02.927Z,29.40
2019-06-19T15:17:31.313Z,29.20
2019-06-19T15:19:59.795Z,29.30
2019-06-19T15:22:28.191Z,29.50
2019-06-19T15:24:56.517Z,29.50
2019-06-19T15:27:28.162Z,29.30
2019-06-19T15:29:56.448Z,29.00
2019-06-19T15:32:24.828Z,29.00
2019-06-19T15:34:53.218Z,29.20
2019-06-19T15:37:21.570Z,29.30
2019-06-19T15:39:53.496Z,29.20
2019-06-19T15:42:21.911Z,29.20
2019-06-19T15:44:50.281Z,29.30
2019-06-19T15:47:18.628Z,29.20
2019-06-19T15:49:46.953Z,29.20
2019-06-19T15:52:15.273Z,29.10
2019-06-19T15:54:43.636Z,29.20
2019-06-19T15:57:11.997Z,29.30
2019-06-19T15:59:40.344Z,29.30
2019-06-19T16:02:09.097Z,29.20
2019-06-19T16:04:37.561Z,29.30
2019-06-19T16:07:05.822Z,29.30
2019-06-19T16:09:34.225Z,29.40
2019-06-19T16:12:02.499Z,29.60
2019-06-19T16:14:30.850Z,29.80
2019-06-19T16:16:59.182Z,29.90
2019-06-19T16:19:27.556Z,29.90
2019-06-19T16:21:55.856Z,29.90
2019-06-19T16:24:25.214Z,29.70
2019-06-19T16:26:53.547Z,29.60
2019-06-19T16:29:21.892Z,29.80
2019-06-19T16:31:50.255Z,29.80
2019-06-19T16:34:18.696Z,29.70
2019-06-19T16:36:50.162Z,29.70
2019-06-19T16:39:18.531Z,29.70
2019-06-19T16:41:57.291Z,29.70
2019-06-19T16:44:16.860Z,29.80
2019-06-19T16:46:45.207Z,29.80
2019-06-19T16:49:13.575Z,29.60
2019-06-19T16:51:42.059Z,29.70
2019-06-19T16:54:10.477Z,29.80
2019-06-19T16:56:38.947Z,29.80
2019-06-19T16:59:07.250Z,29.80
2019-06-19T17:01:35.644Z,29.60
2019-06-19T17:04:03.964Z,29.60
2019-06-19T17:06:32.296Z,29.70
2019-06-19T17:09:04.756Z,29.70
2019-06-19T17:11:31.158Z,29.70
2019-06-19T17:13:59.935Z,29.70
2019-06-19T17:16:28.319Z,29.70
2019-06-19T17:18:56.630Z,29.70
2019-06-19T17:21:24.937Z,29.70
2019-06-19T17:23:53.335Z,29.50
2019-06-19T17:26:21.718Z,29.50
2019-06-19T17:28:50.419Z,29.50
2019-06-19T17:31:18.849Z,29.50
2019-06-19T17:33:47.221Z,29.60
2019-06-19T17:36:15.618Z,29.70
2019-06-19T17:38:44.025Z,29.70
2019-06-19T17:41:12.557Z,29.70
2019-06-19T17:43:40.928Z,29.80
2019-06-19T17:46:09.330Z,29.70
2019-06-19T17:48:37.779Z,29.60
2019-06-19T17:51:06.535Z,29.60
2019-06-19T17:53:35.176Z,29.50
2019-06-19T17:56:03.664Z,29.30
2019-06-19T17:58:32.043Z,29.20
2019-06-19T18:01:00.431Z,29.20
2019-06-19T18:03:28.898Z,29.20
2019-06-19T18:05:57.245Z,29.00
2019-06-19T18:08:25.669Z,28.90
2019-06-19T18:10:54.021Z,28.60
2019-06-19T18:13:22.652Z,28.40
2019-06-19T18:15:50.977Z,28.40
2019-06-19T18:18:19.398Z,28.40
2019-06-19T18:20:47.817Z,28.40
2019-06-19T18:23:16.154Z,28.40
2019-06-19T18:25:44.572Z,28.30
2019-06-19T18:28:12.933Z,28.20
2019-06-19T18:30:41.376Z,28.10
2019-06-19T18:33:09.743Z,28.00
2019-06-19T18:35:39.243Z,27.90
2019-06-19T18:38:07.646Z,27.50
2019-06-19T18:40:37.527Z,27.20
2019-06-19T18:43:05.914Z,26.90
2019-06-19T18:45:34.278Z,26.80
2019-06-19T18:48:02.667Z,26.80
2019-06-19T18:50:31.040Z,26.70
2019-06-19T18:52:59.337Z,26.60
2019-06-19T18:55:27.733Z,26.40
2019-06-19T18:57:56.184Z,26.30
2019-06-19T19:00:25.098Z,26.30
2019-06-19T19:02:53.447Z,26.30
2019-06-19T19:05:21.890Z,26.30
2019-06-19T19:07:50.217Z,25.80
2019-06-19T19:10:19.114Z,24.90
2019-06-19T19:12:47.520Z,24.30
2019-06-19T19:15:15.976Z,24.00
2019-06-19T19:17:44.349Z,23.40
2019-06-19T19:20:13.028Z,22.90
2019-06-19T19:22:41.450Z,22.10
2019-06-19T19:25:09.961Z,21.00
2019-06-19T19:27:38.699Z,20.30
2019-06-19T19:30:07.327Z,19.80
2019-06-19T19:32:35.836Z,19.50
2019-06-19T19:35:04.444Z,19.20
2019-06-19T19:37:32.859Z,19.00
2019-06-19T19:40:01.370Z,18.90
2019-06-19T19:42:29.780Z,18.70
2019-06-19T19:44:58.182Z,18.60
2019-06-19T19:47:26.720Z,18.50
2019-06-19T19:49:58.776Z,18.50
2019-06-19T19:52:25.374Z,18.50
2019-06-19T19:54:53.938Z,18.50
2019-06-19T19:57:22.728Z,18.50
2019-06-19T19:59:58.584Z,18.50
2019-06-19T20:02:21.531Z,18.60
2019-06-19T20:04:50.065Z,18.50
2019-06-19T20:07:18.740Z,18.60
2019-06-19T20:09:47.292Z,18.60
2019-06-19T20:12:15.895Z,18.60
2019-06-19T20:14:44.542Z,18.70
2019-06-19T20:17:13.312Z,18.70
2019-06-19T20:19:41.938Z,18.80
2019-06-19T20:22:10.685Z,18.70
2019-06-19T20:24:39.353Z,18.80
2019-06-19T20:27:09.391Z,18.70
2019-06-19T20:29:38.002Z,18.70
2019-06-19T20:32:25.529Z,18.70
2019-06-19T20:34:54.271Z,18.70
2019-06-19T20:37:22.800Z,18.50
2019-06-19T20:39:51.383Z,18.50
2019-06-19T20:42:19.741Z,18.50
2019-06-19T20:44:48.323Z,18.50
2019-06-19T20:47:22.173Z,18.60
2019-06-19T20:49:47.311Z,18.60
2019-06-19T20:52:19.608Z,18.60
2019-06-19T20:54:46.641Z,18.50
2019-06-19T20:57:15.117Z,18.50
2019-06-19T20:59:43.742Z,18.50
2019-06-19T21:02:12.158Z,18.60
2019-06-19T21:04:40.687Z,18.50
2019-06-19T21:07:10.341Z,18.60
2019-06-19T21:09:38.922Z,18.60
2019-06-19T21:12:07.687Z,18.60
2019-06-19T21:14:36.082Z,18.60
2019-06-19T21:17:04.583Z,18.60
2019-06-19T21:19:33.185Z,18.50
2019-06-19T21:22:01.590Z,18.50
2019-06-19T21:24:30.078Z,18.50
2019-06-19T21:26:59.288Z,18.50
2019-06-19T21:29:27.824Z,18.40
2019-06-19T21:31:57.883Z,18.40
2019-06-19T21:34:26.296Z,18.40
2019-06-19T21:36:54.698Z,18.40
2019-06-19T21:39:23.082Z,18.30
2019-06-19T21:41:51.474Z,18.30
2019-06-19T21:44:19.886Z,18.30
2019-06-19T21:46:48.323Z,18.20
2019-06-19T21:49:16.663Z,18.30
2019-06-19T21:51:45.212Z,18.20
2019-06-19T21:54:13.539Z,18.20
2019-06-19T21:56:41.898Z,18.10
2019-06-19T21:59:10.185Z,18.10
2019-06-19T22:01:38.643Z,18.10
2019-06-19T22:04:07.013Z,18.10
2019-06-19T22:06:35.332Z,18.10
2019-06-19T22:09:04.626Z,18.10
2019-06-19T22:11:33.006Z,18.10
2019-06-19T22:14:01.308Z,18.10
2019-06-19T22:16:33.198Z,18.10
2019-06-19T22:18:59.675Z,18.10
2019-06-19T22:21:28.114Z,18.10
2019-06-19T22:23:56.526Z,18.10
2019-06-19T22:26:24.821Z,18.10
2019-06-19T22:28:53.182Z,18.00
2019-06-19T22:31:21.577Z,17.90
2019-06-19T22:33:49.858Z,17.90
2019-06-19T22:36:18.158Z,17.90
2019-06-19T22:38:46.469Z,17.90
2019-06-19T22:41:14.783Z,17.90
2019-06-19T22:43:43.065Z,17.80
2019-06-19T22:46:11.319Z,17.70
2019-06-19T22:48:39.632Z,17.70
2019-06-19T22:51:07.928Z,17.70
2019-06-19T22:53:36.251Z,17.70
2019-06-19T22:56:04.612Z,17.70
2019-06-19T22:58:32.889Z,17.70
2019-06-19T23:01:01.130Z,17.70
2019-06-19T23:03:42.298Z,17.60
2019-06-19T23:06:12.462Z,17.60
2019-06-19T23:08:40.780Z,17.60
2019-06-19T23:11:09.047Z,17.50
2019-06-19T23:13:37.356Z,17.60
2019-06-19T23:16:05.655Z,17.50
2019-06-19T23:18:33.961Z,17.60
2019-06-19T23:21:02.288Z,17.60
2019-06-19T23:23:30.551Z,17.60
2019-06-19T23:25:58.845Z,17.60
2019-06-19T23:28:27.144Z,17.50
2019-06-19T23:30:55.399Z,17.50
2019-06-19T23:33:23.660Z,17.50
2019-06-19T23:35:51.950Z,17.50
2019-06-19T23:38:20.251Z,17.50
2019-06-19T23:40:48.600Z,17.50
2019-06-19T23:43:16.910Z,17.50
2019-06-19T23:45:45.160Z,17.50
2019-06-19T23:48:13.430Z,17.50
2019-06-19T23:50:41.688Z,17.50
2019-06-19T23:53:09.991Z,17.50
2019-06-19T23:55:38.215Z,17.50
2019-06-19T23:58:06.536Z,17.50
